Terminal Aerodrome Forecast
Issued by NWS

Home | Current Version | Previous Version | Text Only | Print | Product List | Glossary On
Versions: 1 2 3 4 5 6 7 8 9 10 11 12 13 14 15 16 17 18 19 20 21 22 23 24 25 26 27 28
000
FTUS43 KDLH 190500
TAFHYR
TAF
KHYR 190539Z 1906/2006 10008KT P6SM BKN250 WS015/18035KT
     FM191100 13012G22KT P6SM OVC100
     FM191500 16015G25KT P6SM VCSH OVC050
     FM191800 18012G19KT P6SM -RA OVC040
     FM200000 19006KT P6SM VCSH OVC040=

USA.gov is the U.S. government's official web portal to all federal, state and local government web resources and services.